createdAt,value
2018-06-10T00:02:25.082Z,24.20
2018-06-10T00:04:55.053Z,24.43
2018-06-10T00:07:26.235Z,24.67
2018-06-10T00:10:00.276Z,23.20
2018-06-10T00:12:30.272Z,24.73
2018-06-10T00:15:01.417Z,23.97
2018-06-10T00:17:31.204Z,23.87
2018-06-10T00:20:00.894Z,24.43
2018-06-10T00:22:30.519Z,22.67
2018-06-10T00:25:00.370Z,25.53
2018-06-10T00:27:30.142Z,22.53
2018-06-10T00:29:59.745Z,22.03
2018-06-10T00:32:29.343Z,21.10
2018-06-10T00:34:58.986Z,21.70
2018-06-10T00:37:28.663Z,20.60
2018-06-10T00:39:58.282Z,22.97
2018-06-10T00:42:27.909Z,22.63
2018-06-10T00:44:57.585Z,21.13
2018-06-10T00:47:27.314Z,24.13
2018-06-10T00:49:57.032Z,22.67
2018-06-10T00:52:26.608Z,22.03
2018-06-10T00:54:56.324Z,22.43
2018-06-10T00:57:25.953Z,23.27
2018-06-10T00:59:55.695Z,23.20
2018-06-10T01:02:25.735Z,23.10
2018-06-10T01:04:55.394Z,24.43
2018-06-10T01:07:27.959Z,21.63
2018-06-10T01:10:00.442Z,22.07
2018-06-10T01:12:30.463Z,21.87
2018-06-10T01:15:06.328Z,23.77
2018-06-10T01:17:37.977Z,24.60
2018-06-10T01:20:11.416Z,23.97
2018-06-10T01:22:41.049Z,26.57
2018-06-10T01:25:10.690Z,23.43
2018-06-10T01:27:40.426Z,25.93
2018-06-10T01:30:09.982Z,21.60
2018-06-10T01:32:39.615Z,23.47
2018-06-10T01:35:09.289Z,22.63
2018-06-10T01:37:38.899Z,23.13
2018-06-10T01:40:08.612Z,22.73
2018-06-10T01:42:38.293Z,24.50
2018-06-10T01:45:08.013Z,23.20
2018-06-10T01:47:37.668Z,23.73
2018-06-10T01:50:07.388Z,24.87
2018-06-10T01:52:37.104Z,25.17
2018-06-10T01:55:06.857Z,24.83
2018-06-10T01:57:36.421Z,27.10
2018-06-10T02:00:06.129Z,26.60
2018-06-10T02:02:35.761Z,26.20
2018-06-10T02:05:05.747Z,26.50
2018-06-10T02:07:35.343Z,26.33
2018-06-10T02:10:05.195Z,27.87
2018-06-10T02:12:34.723Z,26.70
2018-06-10T02:15:04.481Z,28.37
2018-06-10T02:17:34.127Z,27.50
2018-06-10T02:20:03.978Z,28.97
2018-06-10T02:22:33.707Z,31.57
2018-06-10T02:25:03.237Z,29.23
2018-06-10T02:27:32.919Z,33.47
2018-06-10T02:30:02.656Z,31.17
2018-06-10T02:32:32.352Z,35.07
2018-06-10T02:35:01.997Z,39.77
2018-06-10T02:37:31.658Z,41.70
2018-06-10T02:40:01.338Z,39.87
2018-06-10T02:42:31.016Z,37.83
2018-06-10T02:45:00.742Z,39.23
2018-06-10T02:47:30.402Z,35.93
2018-06-10T02:50:00.144Z,32.60
2018-06-10T02:52:29.815Z,27.27
2018-06-10T02:54:59.530Z,28.93
2018-06-10T02:57:29.278Z,29.00
2018-06-10T02:59:58.886Z,29.53
2018-06-10T03:02:28.620Z,29.77
2018-06-10T03:04:58.273Z,24.00
2018-06-10T03:07:28.054Z,25.77
2018-06-10T03:09:57.990Z,22.53
2018-06-10T03:12:27.678Z,21.27
2018-06-10T03:14:57.232Z,22.03
2018-06-10T03:17:26.829Z,21.23
2018-06-10T03:19:56.490Z,19.50
2018-06-10T03:22:26.131Z,21.97
2018-06-10T03:24:55.467Z,22.17
2018-06-10T03:27:25.055Z,22.07
2018-06-10T03:29:54.781Z,19.37
2018-06-10T03:32:24.327Z,21.53
2018-06-10T03:34:53.952Z,20.63
2018-06-10T03:37:23.581Z,22.37
2018-06-10T03:39:53.206Z,21.07
2018-06-10T03:42:22.924Z,18.40
2018-06-10T03:44:52.519Z,19.47
2018-06-10T03:47:22.325Z,19.67
2018-06-10T03:49:52.093Z,18.00
2018-06-10T03:52:21.799Z,17.13
2018-06-10T03:54:51.419Z,16.17
2018-06-10T03:57:21.016Z,15.10
2018-06-10T03:59:50.565Z,14.27
2018-06-10T04:02:20.351Z,16.63
2018-06-10T04:04:50.023Z,14.53
2018-06-10T04:07:19.717Z,15.10
2018-06-10T04:09:49.465Z,14.97
2018-06-10T04:12:19.013Z,16.43
2018-06-10T04:14:48.744Z,15.87
2018-06-10T04:17:18.323Z,19.00
2018-06-10T04:19:47.850Z,15.97
2018-06-10T04:22:17.472Z,16.03
2018-06-10T04:24:47.100Z,18.17
2018-06-10T04:27:16.826Z,14.63
2018-06-10T04:29:46.385Z,14.80
2018-06-10T04:32:16.041Z,16.00
2018-06-10T04:34:46.551Z,11.70
2018-06-10T04:37:16.231Z,11.33
2018-06-10T04:39:45.759Z,13.43
2018-06-10T04:42:15.451Z,14.23
2018-06-10T04:44:45.019Z,14.50
2018-06-10T04:47:15.005Z,15.80
2018-06-10T04:49:44.584Z,17.00
2018-06-10T04:52:14.215Z,19.63
2018-06-10T04:54:43.913Z,18.77
2018-06-10T04:57:13.606Z,19.90
2018-06-10T04:59:43.196Z,20.43
2018-06-10T05:02:12.957Z,21.80
2018-06-10T05:04:42.577Z,22.80
2018-06-10T05:07:12.486Z,24.97
2018-06-10T05:09:42.044Z,24.70
2018-06-10T05:12:11.657Z,27.07
2018-06-10T05:14:41.376Z,25.33
2018-06-10T05:17:10.984Z,28.83
2018-06-10T05:19:40.677Z,30.30
2018-06-10T05:22:10.341Z,35.97
2018-06-10T05:24:39.895Z,37.77
2018-06-10T05:27:09.521Z,39.83
2018-06-10T05:29:38.826Z,39.87
2018-06-10T05:32:08.373Z,42.70
2018-06-10T05:34:37.979Z,42.93
2018-06-10T05:37:07.627Z,46.73
2018-06-10T05:39:37.153Z,48.47
2018-06-10T05:42:06.995Z,47.13
2018-06-10T05:44:36.582Z,42.93
2018-06-10T05:47:06.194Z,38.90
2018-06-10T05:49:35.813Z,32.37
2018-06-10T05:52:05.658Z,32.93
2018-06-10T05:54:35.309Z,31.53
2018-06-10T05:57:04.873Z,31.73
2018-06-10T05:59:34.457Z,33.93
2018-06-10T06:02:04.311Z,30.67
2018-06-10T06:04:33.963Z,31.17
2018-06-10T06:07:03.693Z,32.67
2018-06-10T06:09:39.946Z,33.03
2018-06-10T06:12:09.599Z,34.47
2018-06-10T06:14:39.219Z,33.47
2018-06-10T06:17:09.185Z,30.23
2018-06-10T06:19:38.855Z,32.83
2018-06-10T06:22:08.447Z,32.47
2018-06-10T06:24:38.178Z,35.70
2018-06-10T06:27:14.551Z,33.37
2018-06-10T06:29:44.260Z,30.60
2018-06-10T06:32:13.965Z,31.33
2018-06-10T06:34:43.574Z,32.03
2018-06-10T06:37:13.236Z,29.37
2018-06-10T06:39:42.844Z,28.13
2018-06-10T06:42:12.456Z,28.87
2018-06-10T06:44:42.033Z,29.67
2018-06-10T06:47:11.668Z,28.23
2018-06-10T06:49:41.372Z,29.67
2018-06-10T06:52:11.072Z,29.33
2018-06-10T06:54:40.772Z,30.93
2018-06-10T06:57:10.355Z,28.97
2018-06-10T06:59:39.932Z,30.97
2018-06-10T07:02:09.567Z,31.40
2018-06-10T07:04:39.217Z,29.63
2018-06-10T07:07:08.780Z,31.80
2018-06-10T07:09:38.762Z,32.87
2018-06-10T07:12:08.642Z,28.20
2018-06-10T07:14:38.295Z,28.30
2018-06-10T07:17:07.934Z,26.77
2018-06-10T07:19:37.566Z,26.63
2018-06-10T07:22:07.187Z,29.30
2018-06-10T07:24:36.732Z,30.20
2018-06-10T07:27:09.227Z,25.83
2018-06-10T07:29:38.998Z,26.80
2018-06-10T07:32:08.543Z,28.07
2018-06-10T07:34:38.157Z,30.53
2018-06-10T07:37:07.794Z,28.87
2018-06-10T07:39:37.348Z,26.93
2018-06-10T07:42:06.992Z,26.50
2018-06-10T07:44:37.337Z,26.47
2018-06-10T07:47:06.867Z,25.23
2018-06-10T07:49:36.576Z,25.00
2018-06-10T07:52:06.137Z,26.40
2018-06-10T07:54:35.779Z,26.83
2018-06-10T07:57:05.377Z,27.93
2018-06-10T07:59:34.926Z,26.23
2018-06-10T08:02:05.010Z,25.50
2018-06-10T08:04:34.616Z,24.83
2018-06-10T08:07:04.247Z,24.53
2018-06-10T08:09:33.969Z,24.33
2018-06-10T08:12:03.597Z,21.97
2018-06-10T08:14:33.443Z,21.27
2018-06-10T08:17:03.329Z,22.33
2018-06-10T08:19:32.991Z,21.47
2018-06-10T08:22:02.635Z,21.37
2018-06-10T08:24:32.258Z,18.43
2018-06-10T08:27:03.408Z,16.93
2018-06-10T08:29:33.151Z,16.27
2018-06-10T08:32:02.953Z,16.63
2018-06-10T08:34:32.815Z,16.10
2018-06-10T08:37:02.654Z,17.77
2018-06-10T08:39:32.348Z,16.53
2018-06-10T08:42:02.002Z,17.13
2018-06-10T08:44:31.774Z,14.90
2018-06-10T08:47:01.537Z,15.20
2018-06-10T08:49:31.538Z,14.50
2018-06-10T08:52:01.208Z,14.97
2018-06-10T08:54:30.807Z,13.67
2018-06-10T08:57:00.490Z,14.03
2018-06-10T08:59:30.179Z,14.13
2018-06-10T09:01:59.725Z,13.57
2018-06-10T09:04:29.548Z,13.27
2018-06-10T09:06:59.260Z,14.00
2018-06-10T09:09:28.864Z,13.87
2018-06-10T09:11:58.514Z,15.00
2018-06-10T09:14:28.209Z,14.33
2018-06-10T09:16:57.826Z,13.80
2018-06-10T09:19:27.423Z,13.53
2018-06-10T09:21:57.066Z,14.23
2018-06-10T09:24:26.737Z,13.50
2018-06-10T09:26:56.364Z,13.37
2018-06-10T09:29:26.091Z,13.33
2018-06-10T09:31:55.749Z,13.97
2018-06-10T09:34:25.350Z,14.13
2018-06-10T09:36:55.250Z,14.53
2018-06-10T09:39:24.910Z,14.50
2018-06-10T09:41:54.566Z,13.83
2018-06-10T09:44:24.206Z,12.87
2018-06-10T09:46:53.779Z,13.07
2018-06-10T09:49:23.438Z,14.43
2018-06-10T09:51:53.052Z,14.23
2018-06-10T09:54:22.649Z,13.20
2018-06-10T09:56:52.310Z,11.60
2018-06-10T09:59:22.040Z,10.30
2018-06-10T10:01:51.656Z,10.23
2018-06-10T10:04:21.252Z,9.13
2018-06-10T10:06:50.862Z,8.53
2018-06-10T10:09:20.464Z,8.10
2018-06-10T10:11:50.046Z,8.33
2018-06-10T10:14:19.741Z,10.73
2018-06-10T10:16:49.357Z,9.70
2018-06-10T10:19:19.303Z,9.50
2018-06-10T10:21:49.253Z,9.87
2018-06-10T10:24:18.856Z,9.30
2018-06-10T10:26:48.429Z,8.87
2018-06-10T10:29:18.035Z,8.73
2018-06-10T10:31:47.909Z,8.17
2018-06-10T10:34:17.731Z,7.23
2018-06-10T10:36:47.469Z,8.33
2018-06-10T10:39:17.263Z,9.27
2018-06-10T10:41:47.052Z,8.67
2018-06-10T10:44:19.644Z,9.70
2018-06-10T10:46:49.269Z,8.80
2018-06-10T10:49:18.850Z,8.80
2018-06-10T10:51:48.460Z,8.13
2018-06-10T10:54:17.984Z,7.53
2018-06-10T10:56:47.647Z,7.40
2018-06-10T10:59:17.314Z,7.73
2018-06-10T11:01:46.986Z,7.37
2018-06-10T11:04:16.505Z,7.53
2018-06-10T11:06:46.153Z,7.93
2018-06-10T11:09:15.676Z,7.90
2018-06-10T11:11:45.253Z,8.10
2018-06-10T11:14:14.804Z,7.73
2018-06-10T11:16:44.388Z,7.90
2018-06-10T11:19:14.086Z,8.17
2018-06-10T11:21:43.735Z,8.20
2018-06-10T11:24:13.871Z,8.37
2018-06-10T11:26:43.679Z,7.37
2018-06-10T11:29:13.375Z,8.10
2018-06-10T11:31:43.262Z,7.13
2018-06-10T11:34:13.222Z,8.27
2018-06-10T11:36:43.292Z,7.90
2018-06-10T11:39:13.479Z,8.50
2018-06-10T11:41:43.277Z,8.20
2018-06-10T11:44:12.991Z,7.90
2018-06-10T11:46:43.166Z,7.97
2018-06-10T11:49:12.911Z,10.20
2018-06-10T11:51:42.522Z,11.03
2018-06-10T11:54:12.232Z,12.07
2018-06-10T11:56:42.008Z,12.93
2018-06-10T11:59:11.688Z,11.37
2018-06-10T12:01:41.910Z,13.10
2018-06-10T12:04:11.547Z,12.87
2018-06-10T12:06:41.270Z,17.77
2018-06-10T12:09:10.825Z,20.10
2018-06-10T12:11:40.511Z,18.97
2018-06-10T12:14:10.177Z,20.60
2018-06-10T12:16:40.077Z,20.90
2018-06-10T12:19:09.868Z,20.60
2018-06-10T12:21:39.537Z,20.83
2018-06-10T12:24:09.297Z,17.93
2018-06-10T12:26:39.073Z,19.40
2018-06-10T12:29:08.754Z,19.07
2018-06-10T12:31:38.572Z,16.73
2018-06-10T12:34:08.303Z,22.70
2018-06-10T12:36:37.950Z,20.27
2018-06-10T12:39:09.387Z,22.57
2018-06-10T12:41:39.259Z,24.70
2018-06-10T12:44:08.887Z,23.60
2018-06-10T12:46:38.555Z,21.97
2018-06-10T12:49:09.125Z,23.03
2018-06-10T12:51:38.739Z,22.70
2018-06-10T12:54:08.486Z,22.17
2018-06-10T12:56:38.143Z,22.23
2018-06-10T12:59:07.952Z,24.57
2018-06-10T13:01:37.661Z,24.20
2018-06-10T13:04:07.524Z,24.27
2018-06-10T13:06:37.720Z,23.97
2018-06-10T13:09:09.233Z,23.13
2018-06-10T13:11:38.980Z,24.63
2018-06-10T13:14:08.868Z,27.60
2018-06-10T13:16:38.677Z,24.67
2018-06-10T13:19:08.401Z,23.53
2018-06-10T13:21:38.213Z,24.07
2018-06-10T13:24:07.902Z,23.77
2018-06-10T13:26:37.523Z,24.00
2018-06-10T13:29:07.202Z,23.37
2018-06-10T13:31:36.791Z,23.90
2018-06-10T13:34:06.494Z,23.00
2018-06-10T13:36:36.225Z,21.80
2018-06-10T13:39:08.269Z,22.93
2018-06-10T13:41:37.918Z,22.90
2018-06-10T13:44:07.748Z,21.80
2018-06-10T13:46:37.425Z,21.40
2018-06-10T13:49:07.147Z,19.27
2018-06-10T13:51:36.861Z,19.60
2018-06-10T13:54:06.569Z,21.30
2018-06-10T13:56:36.160Z,19.90
2018-06-10T13:59:06.110Z,19.33
2018-06-10T14:01:35.774Z,18.63
2018-06-10T14:04:05.389Z,17.30
2018-06-10T14:06:34.951Z,18.63
2018-06-10T14:09:06.285Z,17.37
2018-06-10T14:11:35.852Z,18.87
2018-06-10T14:14:05.483Z,17.27
2018-06-10T14:16:35.171Z,16.93
2018-06-10T14:19:04.968Z,19.77
2018-06-10T14:21:34.565Z,17.07
2018-06-10T14:24:04.853Z,16.97
2018-06-10T14:26:34.510Z,16.67
2018-06-10T14:29:04.189Z,15.37
2018-06-10T14:31:36.661Z,16.23
2018-06-10T14:34:06.408Z,18.93
2018-06-10T14:36:36.043Z,19.10
2018-06-10T14:39:09.216Z,18.67
2018-06-10T14:41:38.855Z,19.13
2018-06-10T14:44:08.526Z,18.50
2018-06-10T14:46:38.196Z,17.83
2018-06-10T14:49:07.899Z,17.33
2018-06-10T14:51:37.479Z,13.30
2018-06-10T14:54:07.502Z,12.33
2018-06-10T14:56:37.125Z,12.33
2018-06-10T14:59:06.817Z,11.53
2018-06-10T15:01:36.638Z,12.67
2018-06-10T15:04:06.475Z,13.20
2018-06-10T15:06:36.135Z,13.03
2018-06-10T15:09:08.256Z,13.40
2018-06-10T15:11:38.557Z,14.60
2018-06-10T15:14:08.196Z,12.80
2018-06-10T15:16:37.895Z,14.90
2018-06-10T15:19:07.564Z,15.43
2018-06-10T15:21:37.220Z,16.97
2018-06-10T15:24:06.948Z,16.07
2018-06-10T15:26:36.600Z,15.83
2018-06-10T15:29:06.309Z,17.03
2018-06-10T15:31:35.952Z,15.43
2018-06-10T15:34:05.669Z,16.77
2018-06-10T15:36:35.313Z,16.90
2018-06-10T15:39:07.747Z,20.33
2018-06-10T15:41:37.400Z,17.50
2018-06-10T15:44:07.180Z,16.57
2018-06-10T15:46:36.862Z,17.00
2018-06-10T15:49:06.709Z,15.67
2018-06-10T15:51:36.672Z,19.10
2018-06-10T15:54:06.380Z,18.70
2018-06-10T15:56:36.325Z,16.57
2018-06-10T15:59:06.039Z,19.43
2018-06-10T16:01:35.782Z,18.10
2018-06-10T16:04:05.547Z,18.40
2018-06-10T16:06:35.182Z,18.30
2018-06-10T16:09:06.716Z,16.63
2018-06-10T16:11:36.370Z,16.77
2018-06-10T16:14:06.038Z,17.53
2018-06-10T16:16:35.776Z,16.40
2018-06-10T16:19:06.182Z,16.97
2018-06-10T16:21:35.905Z,17.63
2018-06-10T16:24:05.592Z,17.83
2018-06-10T16:26:35.235Z,20.80
2018-06-10T16:29:04.986Z,16.67
2018-06-10T16:31:34.858Z,18.43
2018-06-10T16:34:04.511Z,20.87
2018-06-10T16:36:34.163Z,19.73
2018-06-10T16:39:04.182Z,18.47
2018-06-10T16:41:33.896Z,19.30
2018-06-10T16:44:03.721Z,19.93
2018-06-10T16:46:33.620Z,17.60
2018-06-10T16:49:03.331Z,19.57
2018-06-10T16:51:32.953Z,21.10
2018-06-10T16:54:02.808Z,18.20
2018-06-10T16:56:32.509Z,17.83
2018-06-10T16:59:02.851Z,16.47
2018-06-10T17:01:35.837Z,15.80
2018-06-10T17:04:05.861Z,16.30
2018-06-10T17:06:35.512Z,17.67
2018-06-10T17:09:08.316Z,18.00
2018-06-10T17:11:38.194Z,17.47
2018-06-10T17:14:07.929Z,17.90
2018-06-10T17:16:37.706Z,15.27
2018-06-10T17:19:07.806Z,17.77
2018-06-10T17:21:37.666Z,17.13
2018-06-10T17:24:07.270Z,17.60
2018-06-10T17:26:36.913Z,18.20
2018-06-10T17:29:06.548Z,14.30
2018-06-10T17:31:36.152Z,16.67
2018-06-10T17:34:06.014Z,16.97
2018-06-10T17:36:35.792Z,14.97
2018-06-10T17:39:07.848Z,14.57
2018-06-10T17:41:37.584Z,13.90
2018-06-10T17:44:07.323Z,15.07
2018-06-10T17:46:37.126Z,13.73
2018-06-10T17:49:06.936Z,13.17
2018-06-10T17:51:36.681Z,16.27
2018-06-10T17:54:06.567Z,15.40
2018-06-10T17:56:36.444Z,15.73
2018-06-10T17:59:06.734Z,15.03
2018-06-10T18:01:36.346Z,13.50
2018-06-10T18:17:06.389Z,11.83
2018-06-10T18:19:36.088Z,12.53
2018-06-10T18:22:05.671Z,14.33
2018-06-10T18:24:35.285Z,12.77
2018-06-10T18:27:05.262Z,14.50
2018-06-10T18:29:34.985Z,13.07
2018-06-10T18:32:04.638Z,14.83
2018-06-10T18:34:34.294Z,13.20
2018-06-10T18:37:04.128Z,14.23
2018-06-10T18:39:33.927Z,13.93
2018-06-10T18:42:03.615Z,16.80
2018-06-10T18:44:33.442Z,15.47
2018-06-10T18:47:03.185Z,16.13
2018-06-10T18:49:32.846Z,14.90
2018-06-10T18:52:02.621Z,15.07
2018-06-10T18:54:32.298Z,15.93
2018-06-10T18:57:02.159Z,12.27
2018-06-10T18:59:31.979Z,16.33
2018-06-10T19:02:01.854Z,13.90
2018-06-10T19:04:38.590Z,15.03
2018-06-10T19:07:08.428Z,12.93
2018-06-10T19:09:38.477Z,15.67
2018-06-10T19:12:08.302Z,13.03
2018-06-10T19:14:38.217Z,14.30
2018-06-10T19:17:07.969Z,14.23
2018-06-10T19:19:37.658Z,17.70
2018-06-10T19:22:10.239Z,15.43
2018-06-10T19:24:39.929Z,15.37
2018-06-10T19:27:09.556Z,14.33
2018-06-10T19:29:39.227Z,15.73
2018-06-10T19:32:08.879Z,14.97
2018-06-10T19:34:38.664Z,16.60
2018-06-10T19:37:08.354Z,19.30
2018-06-10T19:39:38.115Z,17.73
2018-06-10T19:42:07.982Z,19.30
2018-06-10T19:44:37.887Z,18.07
2018-06-10T19:47:08.354Z,18.60
2018-06-10T19:49:38.103Z,17.97
2018-06-10T19:52:07.856Z,18.47
2018-06-10T19:54:37.582Z,20.27
2018-06-10T19:57:07.316Z,22.13
2018-06-10T19:59:36.992Z,20.50
2018-06-10T20:02:07.070Z,19.37
2018-06-10T20:04:36.890Z,24.47
2018-06-10T20:07:06.611Z,22.13
2018-06-10T20:09:36.337Z,24.30
2018-06-10T20:12:06.223Z,21.73
2018-06-10T20:14:35.866Z,22.30
2018-06-10T20:17:05.637Z,25.17
2018-06-10T20:19:35.342Z,25.03
2018-06-10T20:22:04.944Z,24.63
2018-06-10T20:24:34.738Z,25.53
2018-06-10T20:27:04.490Z,26.03
2018-06-10T20:29:34.208Z,21.93
2018-06-10T20:32:04.079Z,26.17
2018-06-10T20:34:33.909Z,25.17
2018-06-10T20:37:03.558Z,22.93
2018-06-10T20:39:33.258Z,25.53
2018-06-10T20:42:03.077Z,22.30
2018-06-10T20:44:32.755Z,24.20
2018-06-10T20:47:02.444Z,25.33
2018-06-10T20:49:32.131Z,26.27
2018-06-10T20:52:02.546Z,23.90
2018-06-10T20:54:32.312Z,26.70
2018-06-10T20:57:01.984Z,24.17
2018-06-10T20:59:31.669Z,22.50
2018-06-10T21:02:01.076Z,25.57
2018-06-10T21:04:30.842Z,26.73
2018-06-10T21:07:00.532Z,26.17
2018-06-10T21:09:30.277Z,23.63
2018-06-10T21:12:00.098Z,28.17
2018-06-10T21:14:30.029Z,28.43
2018-06-10T21:16:59.719Z,27.00
2018-06-10T21:19:29.496Z,24.90
2018-06-10T21:21:59.309Z,24.23
2018-06-10T21:24:29.077Z,23.77
2018-06-10T21:26:58.831Z,25.00
2018-06-10T21:29:28.562Z,22.60
2018-06-10T21:31:58.214Z,26.70
2018-06-10T21:34:27.970Z,26.60
2018-06-10T21:36:57.699Z,26.37
2018-06-10T21:39:27.402Z,25.47
2018-06-10T21:41:57.058Z,26.87
2018-06-10T21:44:26.830Z,23.00
2018-06-10T21:46:56.499Z,23.80
2018-06-10T21:49:26.251Z,25.93
2018-06-10T21:51:55.864Z,23.40
2018-06-10T21:54:25.678Z,26.07
2018-06-10T21:56:55.391Z,27.60
2018-06-10T21:59:25.088Z,25.30
2018-06-10T22:01:54.778Z,25.23
2018-06-10T22:04:24.477Z,26.33
2018-06-10T22:06:54.151Z,25.60
2018-06-10T22:09:23.888Z,27.70
2018-06-10T22:11:53.689Z,26.83
2018-06-10T22:14:23.370Z,24.77
2018-06-10T22:16:53.112Z,24.03
2018-06-10T22:19:22.753Z,23.47
2018-06-10T22:21:52.398Z,22.80
2018-06-10T22:24:22.026Z,24.73
2018-06-10T22:26:51.673Z,23.93
2018-06-10T22:29:21.403Z,24.23
2018-06-10T22:31:51.060Z,29.50
2018-06-10T22:34:20.680Z,26.10
2018-06-10T22:36:50.476Z,26.53
2018-06-10T22:39:21.004Z,27.63
2018-06-10T22:41:50.654Z,24.70
2018-06-10T22:44:20.359Z,24.17
2018-06-10T22:46:50.004Z,26.10
2018-06-10T22:49:19.639Z,24.07
2018-06-10T22:51:49.228Z,25.67
2018-06-10T22:54:41.450Z,25.53
2018-06-10T22:57:11.214Z,21.93
2018-06-10T22:59:40.907Z,20.63
2018-06-10T23:02:11.486Z,23.67
2018-06-10T23:04:41.104Z,19.50
2018-06-10T23:07:10.803Z,19.43
2018-06-10T23:09:40.443Z,25.07
2018-06-10T23:12:10.180Z,26.07
2018-06-10T23:14:39.829Z,19.50
2018-06-10T23:17:09.480Z,20.90
2018-06-10T23:19:39.116Z,21.33
2018-06-10T23:22:08.745Z,22.03
2018-06-10T23:24:38.288Z,26.87
2018-06-10T23:27:07.933Z,21.47
2018-06-10T23:29:37.481Z,23.43
2018-06-10T23:32:07.099Z,20.37
2018-06-10T23:34:36.850Z,20.37
2018-06-10T23:37:06.516Z,21.43
2018-06-10T23:39:36.144Z,20.60
2018-06-10T23:42:05.877Z,20.97
2018-06-10T23:44:35.723Z,20.47
2018-06-10T23:47:05.599Z,24.67
2018-06-10T23:49:35.409Z,23.47
2018-06-10T23:52:05.017Z,19.43
2018-06-10T23:54:34.606Z,21.90
2018-06-10T23:57:04.194Z,22.30
2018-06-10T23:59:33.820Z,21.03
